Time;durP1;ratioP1;P1;durP2;ratioP2;P2;SDS_P1;SDS_P2;PMS_P1;PMS_P2;Temp;Humidity;BMP_temperature;BMP_pressure;BME280_temperature;BME280_humidity;BME280_pressure;Samples;Min_cycle;Max_cycle;Signal;HPM_P1;HPM_P2
2022/05/26 00:01:24;;;;;;;17.10;12.05;;;;;;;15.36;94.07;94320.42;1623571;87;20997;-45
2022/05/26 00:03:51;;;;;;;22.90;14.10;;;;;;;15.31;94.77;94313.56;1642782;87;21289;-45
2022/05/26 00:06:21;;;;;;;21.62;13.70;;;;;;;15.30;94.95;94325.13;1623295;87;21480;-46
2022/05/26 00:08:48;;;;;;;21.73;14.23;;;;;;;15.27;95.08;94326.07;1643002;86;20976;-46
2022/05/26 00:11:25;;;;;;;19.90;13.32;;;;;;;15.26;95.34;94324.55;1642801;87;21000;-45
2022/05/26 00:13:52;;;;;;;19.00;12.58;;;;;;;15.25;95.35;94319.65;1642676;87;21420;-46
2022/05/26 00:16:19;;;;;;;17.35;12.47;;;;;;;15.25;95.42;94328.57;1642867;87;21257;-47
2022/05/26 00:18:45;;;;;;;21.70;14.03;;;;;;;15.25;95.81;94332.12;1623754;87;21012;-46
2022/05/26 00:21:12;;;;;;;24.20;14.33;;;;;;;15.26;96.14;94335.64;1643254;87;20955;-46
2022/05/26 00:23:39;;;;;;;21.23;13.80;;;;;;;15.27;96.36;94328.84;1642778;87;20976;-46
2022/05/26 00:26:06;;;;;;;17.00;12.88;;;;;;;15.29;96.54;94338.23;1642812;87;21008;-46
2022/05/26 00:28:32;;;;;;;16.97;12.20;;;;;;;15.33;96.82;94338.03;1642873;87;21167;-46
2022/05/26 00:30:59;;;;;;;20.97;13.20;;;;;;;15.39;97.05;94342.36;1642838;86;21468;-46
2022/05/26 00:33:26;;;;;;;21.02;12.95;;;;;;;15.45;96.99;94345.98;1642841;87;21055;-45
2022/05/26 00:35:53;;;;;;;16.50;12.18;;;;;;;15.48;96.83;94350.55;1642788;87;20969;-45
2022/05/26 00:38:20;;;;;;;16.70;11.00;;;;;;;15.50;96.84;94345.27;1643001;87;21428;-45
2022/05/26 00:40:47;;;;;;;10.80;8.63;;;;;;;15.48;96.77;94351.92;1642858;87;21118;-46
2022/05/26 00:43:16;;;;;;;10.20;7.75;;;;;;;15.48;97.14;94345.00;1642725;87;20940;-45
2022/05/26 00:45:54;;;;;;;9.45;7.40;;;;;;;15.48;97.36;94339.45;1623482;87;21432;-46
2022/05/26 00:48:23;;;;;;;7.80;6.20;;;;;;;15.46;97.47;94346.72;1642211;87;20968;-46
2022/05/26 00:50:54;;;;;;;10.15;5.92;;;;;;;15.41;97.47;94352.98;1642969;87;21404;-46
2022/05/26 00:53:40;;;;;;;6.53;5.37;;;;;;;15.43;97.55;94354.63;1642675;87;21461;-45
2022/05/26 00:56:22;;;;;;;8.98;5.42;;;;;;;15.44;97.38;94352.77;1642660;87;21032;-46
2022/05/26 00:58:52;;;;;;;5.58;4.22;;;;;;;15.44;96.98;94350.00;1643139;87;20980;-46
2022/05/26 01:01:19;;;;;;;6.17;3.92;;;;;;;15.45;96.52;94348.75;1624521;87;21001;-45
2022/05/26 01:03:53;;;;;;;3.55;3.25;;;;;;;15.44;95.75;94354.77;1623573;87;21538;-46
2022/05/26 01:06:28;;;;;;;3.00;2.80;;;;;;;15.41;94.37;94352.37;1642669;87;21088;-46
2022/05/26 01:08:59;;;;;;;3.47;3.10;;;;;;;15.39;93.42;94343.75;1642917;87;20941;-46
2022/05/26 01:11:29;;;;;;;3.33;3.02;;;;;;;15.37;92.54;94350.41;1642500;87;21043;-45
2022/05/26 01:14:18;;;;;;;4.67;3.08;;;;;;;15.30;91.92;94349.46;1642858;87;21040;-47
2022/05/26 01:17:27;;;;;;;6.12;3.20;;;;;;;15.26;91.77;94358.58;1642794;87;21023;-45
2022/05/26 01:20:30;;;;;;;3.12;2.83;;;;;;;15.23;91.48;94356.79;1643171;87;21121;-46
2022/05/26 01:23:12;;;;;;;3.22;2.92;;;;;;;15.16;90.97;94359.96;1642800;87;21479;-47
2022/05/26 01:26:05;;;;;;;3.52;2.58;;;;;;;15.10;91.04;94370.23;1642767;87;21060;-46
2022/05/26 01:28:47;;;;;;;;;;;;;;;15.06;90.65;94382.14;1645380;87;20997;-46
2022/05/26 01:31:47;;;;;;;2.80;2.60;;;;;;;15.01;90.74;94368.96;1642800;87;20446;-46
2022/05/26 01:34:32;;;;;;;4.50;2.80;;;;;;;14.99;90.90;94356.86;1642891;87;21230;-46
2022/05/26 01:37:41;;;;;;;4.53;2.85;;;;;;;15.01;90.08;94366.83;1642887;87;20999;-46
2022/05/26 01:40:44;;;;;;;4.83;3.00;;;;;;;14.94;89.94;94373.54;1639414;87;21011;-47
2022/05/26 01:43:56;;;;;;;2.70;2.27;;;;;;;14.86;89.05;94390.44;1642777;87;20996;-45
2022/05/26 01:46:28;;;;;;;2.12;1.92;;;;;;;14.80;88.83;94396.50;1643137;87;21032;-46
2022/05/26 01:49:07;;;;;;;2.00;1.90;;;;;;;14.70;87.21;94396.50;1642816;87;21149;-46
2022/05/26 01:51:41;;;;;;;1.80;1.70;;;;;;;14.65;86.54;94386.73;1642732;87;21074;-46
2022/05/26 01:54:14;;;;;;;1.62;1.52;;;;;;;14.56;86.02;94404.22;1642796;87;20983;-46
2022/05/26 01:56:52;;;;;;;1.80;1.70;;;;;;;14.50;85.91;94408.92;1643114;86;21098;-46
2022/05/26 01:59:23;;;;;;;1.70;1.60;;;;;;;14.47;85.72;94408.47;1637118;87;20988;-46
2022/05/26 02:02:02;;;;;;;1.50;1.47;;;;;;;14.41;85.80;94410.26;1643081;87;21124;-46
2022/05/26 02:04:46;;;;;;;1.35;1.30;;;;;;;14.35;85.92;94428.78;1642782;87;20941;-46
2022/05/26 02:07:32;;;;;;;1.30;1.30;;;;;;;14.27;85.95;94427.63;1642821;87;21012;-47
2022/05/26 02:10:01;;;;;;;2.83;1.50;;;;;;;14.18;85.66;94418.06;1642748;87;20984;-46
2022/05/26 02:12:37;;;;;;;2.45;1.50;;;;;;;14.11;85.96;94436.37;1642996;87;21000;-46
2022/05/26 02:15:17;;;;;;;4.22;1.27;;;;;;;14.07;85.94;94449.04;1642854;87;21140;-47
2022/05/26 02:17:51;;;;;;;1.50;1.40;;;;;;;14.06;85.98;94453.05;1643403;87;20964;-45
2022/05/26 02:20:26;;;;;;;7.83;1.32;;;;;;;14.01;85.00;94438.47;1642676;87;21477;-46
2022/05/26 02:23:08;;;;;;;1.50;1.40;;;;;;;13.95;85.02;94435.46;1642675;87;21004;-46
2022/05/26 02:25:36;;;;;;;2.45;1.60;;;;;;;13.91;85.21;94446.73;1642798;87;21051;-46
2022/05/26 02:28:04;;;;;;;2.50;1.72;;;;;;;13.83;86.20;94444.18;1642707;87;21168;-46
2022/05/26 02:30:36;;;;;;;1.30;1.20;;;;;;;13.74;86.85;94458.70;1642761;87;20946;-46
2022/05/26 02:33:05;;;;;;;1.62;1.35;;;;;;;13.62;87.08;94467.41;1643154;87;20966;-46
2022/05/26 02:35:37;;;;;;;2.67;1.30;;;;;;;13.62;87.08;94467.41;1642779;87;21447;-47
2022/05/26 02:38:17;;;;;;;1.40;1.30;;;;;;;13.59;86.26;94472.50;1641297;87;21452;-46
2022/05/26 02:40:45;;;;;;;1.20;1.10;;;;;;;13.54;86.40;94491.73;1642464;87;21178;-45
2022/05/26 02:43:19;;;;;;;2.22;1.20;;;;;;;13.52;86.61;94499.13;1642697;87;20951;-48
2022/05/26 02:46:17;;;;;;;1.32;1.20;;;;;;;13.53;86.69;94499.88;1642806;87;21031;-45
2022/05/26 02:49:27;;;;;;;2.75;1.42;;;;;;;13.51;87.42;94492.69;1642709;87;21036;-47
2022/05/26 02:52:20;;;;;;;3.65;1.55;;;;;;;13.51;88.24;94505.12;1642778;87;20985;-46
2022/05/26 02:55:10;;;;;;;2.52;1.60;;;;;;;13.47;88.57;94525.27;1642632;87;21330;-46
2022/05/26 02:57:54;;;;;;;1.62;1.40;;;;;;;13.48;88.94;94512.98;1642698;86;21562;-46
2022/05/26 03:00:35;;;;;;;2.90;1.50;;;;;;;13.50;89.24;94518.80;1642286;87;20956;-46
2022/05/26 03:03:09;;;;;;;2.20;1.45;;;;;;;13.51;89.57;94521.70;1642698;87;21451;-47
2022/05/26 03:06:01;;;;;;;2.75;1.47;;;;;;;13.47;89.11;94529.41;1643138;87;21460;-46
2022/05/26 03:08:28;;;;;;;1.70;1.60;;;;;;;13.49;89.80;94521.41;1643189;87;21214;-45
2022/05/26 03:11:09;;;;;;;3.37;1.37;;;;;;;13.51;89.52;94535.52;1642755;87;21075;-46
2022/05/26 03:13:36;;;;;;;2.00;1.27;;;;;;;13.53;89.65;94525.53;1642196;87;21075;-46
2022/05/26 03:16:04;;;;;;;2.02;1.60;;;;;;;13.53;89.44;94520.61;1643151;87;20964;-46
2022/05/26 03:18:30;;;;;;;1.50;1.40;;;;;;;13.49;89.27;94521.41;1642944;87;21013;-46
2022/05/26 03:21:00;;;;;;;1.62;1.27;;;;;;;13.44;89.28;94529.72;1642825;87;21257;-46
2022/05/26 03:23:27;;;;;;;1.40;1.30;;;;;;;13.48;89.09;94530.94;1623696;87;21510;-45
2022/05/26 03:25:56;;;;;;;1.40;1.30;;;;;;;13.54;88.96;94537.34;1623968;87;20976;-47
2022/05/26 03:28:24;;;;;;;3.12;1.52;;;;;;;13.54;89.26;94542.87;1643164;87;21162;-45
2022/05/26 03:30:51;;;;;;;3.83;1.60;;;;;;;13.52;89.40;94543.36;1642855;87;20952;-45
2022/05/26 03:33:18;;;;;;;2.10;1.85;;;;;;;13.51;89.61;94546.58;1642912;87;21303;-46
2022/05/26 03:41:19;;;;;;;8.68;1.80;;;;;;;13.42;90.11;94568.75;1643300;87;21060;-45
2022/05/26 03:43:49;;;;;;;1.42;1.32;;;;;;;13.40;91.09;94565.06;1642854;87;21115;-45
2022/05/26 03:46:16;;;;;;;1.72;1.60;;;;;;;13.43;91.64;94568.27;1643029;87;21223;-45
2022/05/26 03:48:43;;;;;;;3.08;1.80;;;;;;;13.49;91.99;94571.16;1642838;87;20949;-46
2022/05/26 03:51:09;;;;;;;1.92;1.30;;;;;;;13.51;92.26;94581.91;1642915;87;21492;-46
2022/05/26 03:53:36;;;;;;;2.45;1.50;;;;;;;13.59;92.26;94578.17;1642832;87;21043;-47
2022/05/26 03:56:04;;;;;;;1.75;1.40;;;;;;;13.62;91.97;94579.36;1622582;87;21121;-45
2022/05/26 03:58:32;;;;;;;3.00;1.75;;;;;;;13.63;91.33;94584.28;1642866;87;21090;-46
2022/05/26 04:01:06;;;;;;;4.25;1.67;;;;;;;13.62;90.95;94587.66;1642824;87;21549;-47
2022/05/26 04:03:34;;;;;;;1.35;1.32;;;;;;;13.66;90.94;94591.00;1643032;87;20945;-46
2022/05/26 04:06:01;;;;;;;2.72;1.32;;;;;;;13.70;90.83;94589.45;1643275;87;21017;-46
2022/05/26 04:08:27;;;;;;;1.40;1.30;;;;;;;13.72;91.29;94593.89;1642905;87;21000;-46
2022/05/26 04:10:54;;;;;;;1.50;1.40;;;;;;;13.77;91.37;94604.30;1642888;87;21491;-47
2022/05/26 04:13:22;;;;;;;1.72;1.62;;;;;;;13.80;91.34;94597.84;1622916;87;20932;-46
2022/05/26 04:15:48;;;;;;;1.60;1.40;;;;;;;13.86;91.26;94602.86;1642853;87;21483;-45
2022/05/26 04:18:15;;;;;;;1.52;1.42;;;;;;;13.92;90.85;94599.59;1642880;87;21589;-46
2022/05/26 04:20:42;;;;;;;1.70;1.60;;;;;;;13.91;90.91;94591.92;1642805;87;20992;-45
2022/05/26 04:23:10;;;;;;;2.80;2.22;;;;;;;13.96;91.26;94609.88;1643159;87;21824;-47
2022/05/26 04:25:37;;;;;;;2.10;1.80;;;;;;;14.02;91.29;94610.75;1623626;87;20988;-46
2022/05/26 04:28:04;;;;;;;1.50;1.40;;;;;;;14.07;90.63;94612.85;1642883;87;21397;-46
2022/05/26 04:30:32;;;;;;;1.67;1.55;;;;;;;14.07;90.02;94613.63;1642985;87;20960;-47
2022/05/26 04:32:58;;;;;;;2.77;1.65;;;;;;;14.03;89.69;94615.04;1642976;87;21574;-47
2022/05/26 04:35:25;;;;;;;2.65;1.80;;;;;;;13.99;89.48;94613.08;1642832;87;21146;-48
2022/05/26 04:37:51;;;;;;;3.50;1.85;;;;;;;13.95;89.62;94617.39;1642712;87;20940;-49
2022/05/26 04:40:18;;;;;;;2.52;2.00;;;;;;;13.97;89.70;94625.23;1643210;87;21024;-49
2022/05/26 04:42:45;;;;;;;2.45;1.87;;;;;;;13.98;89.65;94627.52;1643021;87;20956;-49
2022/05/26 04:45:13;;;;;;;3.25;1.92;;;;;;;14.03;89.79;94631.64;1642844;87;20969;-48
2022/05/26 04:47:40;;;;;;;3.83;1.67;;;;;;;14.04;89.61;94625.65;1642777;87;21424;-46
2022/05/26 04:50:09;;;;;;;1.90;1.80;;;;;;;14.05;89.13;94636.86;1642754;87;21020;-47
2022/05/26 04:52:37;;;;;;;4.50;1.80;;;;;;;14.01;89.26;94635.50;1642955;87;21067;-47
2022/05/26 04:55:05;;;;;;;2.37;1.50;;;;;;;14.01;89.37;94628.58;1642921;87;21447;-46
2022/05/26 04:57:33;;;;;;;3.02;1.80;;;;;;;14.01;89.86;94631.34;1643056;86;21404;-49
2022/05/26 05:00:00;;;;;;;3.72;1.87;;;;;;;14.02;89.30;94640.54;1642816;87;21157;-48
2022/05/26 05:02:26;;;;;;;1.60;1.50;;;;;;;13.99;89.43;94650.42;1642749;87;21011;-48
2022/05/26 05:04:53;;;;;;;2.37;1.70;;;;;;;13.99;89.57;94648.41;1642788;87;20988;-48
2022/05/26 05:07:21;;;;;;;6.08;2.20;;;;;;;14.02;89.57;94644.69;1642820;87;20965;-46
2022/05/26 05:09:48;;;;;;;2.37;2.00;;;;;;;14.04;89.55;94651.92;1642974;87;21012;-46
2022/05/26 05:12:21;;;;;;;2.42;2.08;;;;;;;14.11;89.93;94657.70;1642774;87;21546;-47
2022/05/26 05:14:49;;;;;;;6.87;2.30;;;;;;;14.37;89.73;94668.47;1624300;87;21468;-47
2022/05/26 05:17:17;;;;;;;3.55;2.67;;;;;;;14.37;89.73;94668.47;1621988;87;21441;-48
2022/05/26 05:19:45;;;;;;;3.55;2.40;;;;;;;14.46;89.61;94672.67;1621888;87;20964;-48
2022/05/26 05:22:32;;;;;;;2.75;2.50;;;;;;;14.58;88.84;94668.89;1642700;87;20952;-47
2022/05/26 05:25:26;;;;;;;2.70;2.25;;;;;;;14.65;88.06;94669.91;1621832;87;21194;-52
2022/05/26 05:28:06;;;;;;;5.50;4.42;;;;;;;14.70;87.17;94674.80;1601833;87;20956;-48
2022/05/26 05:30:41;;;;;;;2.70;2.50;;;;;;;14.77;87.08;94684.72;1622772;87;20983;-48
2022/05/26 05:33:35;;;;;;;2.70;2.37;;;;;;;14.84;86.94;94682.34;1634794;87;21058;-49
2022/05/26 05:36:16;;;;;;;2.50;2.10;;;;;;;14.82;86.25;94686.84;1670925;85;21008;-50
2022/05/26 05:38:43;;;;;;;2.92;2.30;;;;;;;14.79;86.15;94681.63;1696746;84;21144;-48
2022/05/26 05:41:09;;;;;;;4.22;2.85;;;;;;;14.81;86.38;94687.45;1687998;84;21003;-46
2022/05/26 05:43:37;;;;;;;5.85;3.67;;;;;;;14.80;86.26;94692.10;1666685;85;21082;-49
2022/05/26 05:46:04;;;;;;;3.52;3.00;;;;;;;14.77;86.32;94688.87;1676782;85;21039;-50
2022/05/26 05:48:31;;;;;;;6.22;3.67;;;;;;;14.77;85.89;94691.04;1661949;85;21497;-51
2022/05/26 05:50:59;;;;;;;6.92;5.22;;;;;;;14.73;85.82;94694.62;1684504;83;22195;-48
2022/05/26 05:53:26;;;;;;;5.33;4.83;;;;;;;14.72;85.64;94694.47;1666206;83;21112;-47
2022/05/26 05:55:52;;;;;;;4.33;2.80;;;;;;;14.73;85.74;94700.77;1684098;83;21415;-48
2022/05/26 05:58:19;;;;;;;4.22;2.90;;;;;;;14.82;85.72;94698.67;1684065;83;21135;-53
2022/05/26 06:00:46;;;;;;;3.35;2.72;;;;;;;14.89;85.18;94696.94;1676862;83;21030;-50
2022/05/26 06:03:12;;;;;;;2.22;2.08;;;;;;;14.97;84.81;94698.08;1673543;83;21230;-49
2022/05/26 06:05:39;;;;;;;3.58;3.25;;;;;;;15.11;84.62;94695.17;1672450;83;21046;-49
2022/05/26 06:08:06;;;;;;;25.55;18.95;;;;;;;15.24;83.72;94695.05;1673167;83;21175;-52
2022/05/26 06:10:33;;;;;;;3.33;3.02;;;;;;;15.32;82.97;94699.62;1673683;83;22145;-50
2022/05/26 06:13:01;;;;;;;5.78;3.52;;;;;;;15.39;81.66;94696.45;1637707;85;21735;-48
2022/05/26 06:15:28;;;;;;;2.67;2.47;;;;;;;15.46;79.26;94698.22;1676050;85;21352;-49
2022/05/26 06:17:56;;;;;;;8.40;5.45;;;;;;;15.56;79.11;94699.62;1675243;83;21108;-50
2022/05/26 06:20:22;;;;;;;3.98;2.55;;;;;;;15.63;78.36;94704.80;1681037;83;21546;-49
2022/05/26 06:22:49;;;;;;;3.60;2.83;;;;;;;15.63;75.71;94707.58;1681253;83;21069;-49
2022/05/26 06:25:18;;;;;;;6.60;6.03;;;;;;;15.64;75.26;94703.55;1653614;85;21067;-49
2022/05/26 06:30:33;;;;;;;3.65;2.35;;;;;;;15.76;74.46;94706.63;1667660;83;21073;-54
2022/05/26 06:38:35;;;;;;;9.90;7.37;;;;;;;15.74;72.54;94706.34;1684021;83;21036;-49
2022/05/26 06:43:51;;;;;;;11.15;3.35;;;;;;;15.79;70.02;94705.69;1690676;83;21091;-51
2022/05/26 06:46:19;;;;;;;3.55;2.77;;;;;;;15.83;70.03;94705.47;1692361;83;21126;-48
2022/05/26 06:48:47;;;;;;;3.70;2.80;;;;;;;15.91;69.79;94700.42;1683324;82;21177;-49
2022/05/26 06:51:16;;;;;;;9.88;6.10;;;;;;;15.95;67.92;94699.59;1698555;82;21042;-50
2022/05/26 06:53:45;;;;;;;13.95;3.92;;;;;;;16.03;67.02;94706.29;1659134;83;39470;-48
2022/05/26 06:56:13;;;;;;;4.30;2.85;;;;;;;16.12;65.92;94708.18;1690683;83;20998;-54
2022/05/26 06:58:40;;;;;;;2.52;2.30;;;;;;;16.25;66.21;94701.68;1687272;82;21511;-50
2022/05/26 07:01:07;;;;;;;3.40;2.65;;;;;;;16.31;63.96;94700.48;1698939;82;21054;-48
2022/05/26 07:03:34;;;;;;;3.80;3.50;;;;;;;16.34;62.49;94696.77;1686590;83;21062;-48
2022/05/26 07:06:03;;;;;;;4.28;2.90;;;;;;;16.41;62.62;94694.98;1637789;86;21163;-49
2022/05/26 07:08:31;;;;;;;4.20;2.90;;;;;;;16.51;61.72;94694.99;1685317;84;21080;-49
2022/05/26 07:11:00;;;;;;;5.37;3.10;;;;;;;16.61;62.08;94681.08;1687814;84;22262;-49
2022/05/26 07:13:27;;;;;;;15.83;13.22;;;;;;;16.65;62.65;94685.19;1684253;82;21063;-48
2022/05/26 07:15:55;;;;;;;7.42;4.67;;;;;;;16.67;62.51;94684.68;1688024;83;21070;-60
2022/05/26 07:18:21;;;;;;;7.30;3.33;;;;;;;16.70;62.26;94683.09;1653185;84;21334;-48
2022/05/26 07:20:48;;;;;;;7.00;2.98;;;;;;;16.81;62.67;94683.84;1685401;83;21050;-49
2022/05/26 07:23:15;;;;;;;4.12;2.98;;;;;;;16.94;62.78;94684.23;1669783;84;21002;-51
2022/05/26 07:25:42;;;;;;;5.22;2.77;;;;;;;17.03;61.88;94688.23;1696582;83;21607;-54
2022/05/26 07:28:14;;;;;;;3.60;2.35;;;;;;;17.04;61.04;94686.98;1657670;84;21564;-50
2022/05/26 07:30:41;;;;;;;3.08;2.47;;;;;;;17.04;61.31;94682.81;1642563;85;22250;-48
2022/05/26 07:33:09;;;;;;;4.70;2.45;;;;;;;17.08;61.52;94676.44;1686932;83;20997;-46
2022/05/26 07:35:37;;;;;;;3.40;2.40;;;;;;;17.08;61.30;94677.18;1688196;83;20972;-50
2022/05/26 07:43:37;;;;;;;2.30;2.17;;;;;;;17.13;61.33;94675.08;1673381;83;21841;-50
2022/05/26 07:46:04;;;;;;;2.55;2.15;;;;;;;17.11;59.65;94674.06;1680898;84;21431;-48
2022/05/26 07:48:33;;;;;;;4.70;2.42;;;;;;;17.06;59.98;94675.52;1689043;82;21549;-52
2022/05/26 07:51:00;;;;;;;3.58;2.37;;;;;;;17.17;60.89;94674.87;1686840;83;21134;-50
2022/05/26 07:53:26;;;;;;;2.85;2.25;;;;;;;17.26;60.70;94674.07;1661808;83;21075;-50
2022/05/26 07:55:53;;;;;;;3.67;2.37;;;;;;;17.32;59.41;94675.52;1691193;82;21793;-50
2022/05/26 07:58:24;;;;;;;9.90;3.95;;;;;;;17.36;59.38;94676.08;1693719;83;21088;-51
2022/05/26 08:00:49;;;;;;;6.47;2.58;;;;;;;17.37;60.43;94679.78;1647631;85;21097;-49
2022/05/26 08:03:18;;;;;;;1.75;1.65;;;;;;;17.50;60.10;94677.98;1683753;83;21100;-52
2022/05/26 08:05:45;;;;;;;5.45;2.42;;;;;;;17.62;59.42;94669.23;1696222;82;21069;-51
2022/05/26 08:08:14;;;;;;;3.10;1.80;;;;;;;17.70;58.74;94677.27;1711005;83;21163;-55
2022/05/26 08:10:42;;;;;;;6.65;2.20;;;;;;;17.72;57.54;94684.50;1679140;84;21078;-50
2022/05/26 08:13:11;;;;;;;2.70;2.25;;;;;;;17.75;57.78;94680.72;1686131;82;21023;-54
2022/05/26 08:15:39;;;;;;;4.00;1.95;;;;;;;17.77;57.95;94682.98;1684113;83;21061;-52
2022/05/26 08:18:07;;;;;;;3.30;1.70;;;;;;;17.85;57.42;94676.48;1689369;82;22184;-49
2022/05/26 08:20:34;;;;;;;2.08;1.87;;;;;;;18.00;57.36;94680.52;1680700;85;21121;-50
2022/05/26 08:23:01;;;;;;;2.95;2.15;;;;;;;18.15;57.16;94680.48;1683322;83;21058;-50
2022/05/26 08:25:29;;;;;;;3.30;1.82;;;;;;;18.25;56.58;94671.42;1662557;84;21042;-49
2022/05/26 08:27:55;;;;;;;1.82;1.62;;;;;;;18.31;56.12;94673.63;1716013;81;21036;-50
2022/05/26 08:30:22;;;;;;;1.55;1.45;;;;;;;18.40;55.36;94674.05;1682849;83;21096;-51
2022/05/26 08:32:53;;;;;;;3.12;1.75;;;;;;;18.44;55.11;94663.45;1687451;83;21141;-50
2022/05/26 08:35:21;;;;;;;1.87;1.75;;;;;;;18.52;55.47;94666.66;1665223;83;21059;-51
2022/05/26 08:37:48;;;;;;;2.17;1.65;;;;;;;18.78;56.50;94656.11;1682260;83;21027;-50
2022/05/26 08:40:36;;;;;;;2.70;1.57;;;;;;;19.09;55.84;94655.95;1682596;83;21101;-52
2022/05/26 08:43:05;;;;;;;2.15;1.57;;;;;;;19.28;52.95;94652.83;1678187;83;21097;-51
2022/05/26 08:45:33;;;;;;;2.02;1.85;;;;;;;19.41;51.08;94651.69;1650302;85;21224;-51
2022/05/26 08:48:00;;;;;;;1.40;1.30;;;;;;;19.49;51.65;94658.30;1692009;83;21091;-49
2022/05/26 08:50:37;;;;;;;4.00;1.50;;;;;;;19.65;50.41;94665.14;1685013;83;21067;-49
2022/05/26 08:53:13;;;;;;;1.70;1.60;;;;;;;19.74;50.50;94653.09;1684172;83;21679;-52
2022/05/26 08:55:44;;;;;;;4.40;1.47;;;;;;;19.87;49.00;94656.14;1678548;83;21090;-49
2022/05/26 08:58:18;;;;;;;1.50;1.40;;;;;;;19.99;48.09;94652.69;1630437;83;21137;-48
2022/05/26 09:00:48;;;;;;;3.50;1.57;;;;;;;20.07;46.86;94661.47;1681056;84;21355;-49
2022/05/26 09:03:31;;;;;;;2.10;1.40;;;;;;;20.17;46.96;94655.09;1665394;84;21577;-53
2022/05/26 09:06:14;;;;;;;3.02;1.20;;;;;;;20.38;46.76;94663.30;1657259;85;21045;-51
2022/05/26 09:14:28;;;;;;;1.72;1.62;;;;;;;20.74;43.75;94661.41;1667983;85;22184;-53
2022/05/26 09:17:02;;;;;;;6.00;1.30;;;;;;;20.81;43.86;94663.03;1662433;84;21170;-50
2022/05/26 09:19:44;;;;;;;1.55;1.15;;;;;;;20.88;43.01;94661.73;1659072;84;21061;-50
2022/05/26 09:22:39;;;;;;;1.77;1.20;;;;;;;20.96;43.01;94664.88;1679574;84;21043;-49
2022/05/26 09:25:14;;;;;;;2.65;1.27;;;;;;;21.06;43.72;94664.70;1683826;83;21149;-49
2022/05/26 09:27:44;;;;;;;3.55;1.50;;;;;;;21.13;41.01;94655.01;1664619;83;21014;-49
2022/05/26 09:30:24;;;;;;;2.35;1.10;;;;;;;21.29;40.85;94656.95;1655673;83;21137;-50
2022/05/26 09:32:51;;;;;;;1.80;1.25;;;;;;;21.44;41.79;94669.96;1683454;83;21586;-50
2022/05/26 09:35:27;;;;;;;1.50;1.05;;;;;;;21.54;38.87;94666.95;1675322;85;21061;-52
2022/05/26 09:37:58;;;;;;;1.45;1.32;;;;;;;21.54;37.11;94663.52;1689601;83;21176;-50
2022/05/26 09:40:36;;;;;;;1.75;1.40;;;;;;;21.50;37.21;94656.02;1674037;84;21562;-48
2022/05/26 09:43:11;;;;;;;1.67;1.25;;;;;;;21.60;39.64;94661.43;1682831;84;21037;-51
2022/05/26 09:45:46;;;;;;;3.50;1.20;;;;;;;21.76;36.94;94655.59;1649641;85;21088;-52
2022/05/26 09:48:32;;;;;;;2.10;1.15;;;;;;;21.89;36.04;94659.33;1689636;81;21506;-48
2022/05/26 09:51:11;;;;;;;2.50;1.30;;;;;;;22.05;37.25;94656.36;1691315;83;21177;-52
2022/05/26 09:53:44;;;;;;;3.42;1.50;;;;;;;22.14;34.02;94665.81;1690812;83;20964;-50
2022/05/26 09:56:12;;;;;;;;;;;;;;;22.16;35.22;94666.08;1682512;83;21040;-49
2022/05/26 09:58:43;;;;;;;3.30;1.10;;;;;;;22.24;34.02;94664.20;1682717;82;20222;-51
2022/05/26 10:01:25;;;;;;;2.62;1.30;;;;;;;22.35;34.96;94666.13;1673462;84;21146;-49
2022/05/26 10:04:16;;;;;;;1.55;1.10;;;;;;;22.50;36.08;94658.84;1642901;85;21210;-49
2022/05/26 10:07:05;;;;;;;2.55;1.17;;;;;;;22.67;38.48;94667.84;1634480;87;21545;-51
2022/05/26 10:09:40;;;;;;;0.85;0.72;;;;;;;22.86;36.96;94662.27;1630169;87;21119;-50
2022/05/26 10:12:46;;;;;;;3.47;1.12;;;;;;;22.92;35.38;94667.94;1638684;86;21130;-54
2022/05/26 10:15:36;;;;;;;2.42;1.10;;;;;;;22.88;35.47;94670.92;1642465;87;21303;-50
2022/05/26 10:18:33;;;;;;;1.35;0.93;;;;;;;23.07;37.59;94654.22;1625804;87;21432;-51
2022/05/26 10:21:22;;;;;;;3.35;1.10;;;;;;;23.34;35.07;94660.12;1624329;87;21113;-50
2022/05/26 10:23:56;;;;;;;1.77;1.07;;;;;;;23.61;34.17;94663.81;1626280;88;21075;-53
2022/05/26 10:26:56;;;;;;;1.70;1.00;;;;;;;23.80;35.27;94661.73;1613421;87;21108;-51
2022/05/26 10:30:06;;;;;;;12.37;1.47;;;;;;;24.16;34.27;94658.06;1588224;87;21540;-53
2022/05/26 10:32:44;;;;;;;1.25;0.82;;;;;;;24.36;33.13;94663.84;1683366;83;21176;-53
2022/05/26 10:35:31;;;;;;;1.15;0.90;;;;;;;24.55;33.59;94654.69;1686903;84;21902;-54
2022/05/26 10:38:24;;;;;;;2.67;1.25;;;;;;;24.45;33.90;94650.77;1618235;86;21056;-51
2022/05/26 10:41:05;;;;;;;2.08;1.85;;;;;;;24.21;34.44;94658.63;1659617;84;21034;-49
2022/05/26 10:43:55;;;;;;;1.50;1.00;;;;;;;24.42;32.79;94654.64;1680264;85;21467;-52
2022/05/26 10:46:24;;;;;;;1.50;1.02;;;;;;;24.75;31.37;94646.27;1680098;85;21266;-50
2022/05/26 10:49:20;;;;;;;7.85;1.52;;;;;;;25.22;31.61;94641.45;1675493;85;21041;-50
2022/05/26 10:51:56;;;;;;;1.35;0.80;;;;;;;25.59;31.87;94638.30;1637141;85;21035;-51
2022/05/26 10:54:52;;;;;;;2.02;0.95;;;;;;;25.76;30.87;94645.72;1623742;87;21070;-51
2022/05/26 10:57:42;;;;;;;5.50;1.00;;;;;;;25.84;30.18;94645.16;1622554;87;21058;-50
2022/05/26 11:00:18;;;;;;;3.22;1.02;;;;;;;25.84;30.45;94652.20;1679445;83;21235;-54
2022/05/26 11:03:14;;;;;;;2.37;1.00;;;;;;;25.57;29.54;94657.19;1681849;83;21037;-52
2022/05/26 11:05:50;;;;;;;2.25;0.80;;;;;;;25.66;30.74;94655.30;1681540;83;20998;-48
2022/05/26 11:08:41;;;;;;;5.05;0.98;;;;;;;25.98;29.72;94643.90;1646467;85;21999;-51
2022/05/26 11:11:46;;;;;;;1.98;1.15;;;;;;;26.38;28.18;94645.20;1681749;83;21018;-48
2022/05/26 11:17:49;;;;;;;1.52;0.78;;;;;;;26.65;28.49;94650.03;1680465;84;21030;-53
2022/05/26 11:20:27;;;;;;;1.42;0.85;;;;;;;26.08;28.89;94654.81;1685610;82;20993;-52
2022/05/26 11:23:02;;;;;;;3.42;0.70;;;;;;;26.00;30.08;94654.00;1646624;85;21596;-51
2022/05/26 11:25:34;;;;;;;2.25;1.07;;;;;;;26.02;32.23;94652.80;1661300;85;21057;-51
2022/05/26 11:28:15;;;;;;;2.00;1.20;;;;;;;25.93;32.94;94655.97;1678905;84;21877;-51
2022/05/26 11:36:54;;;;;;;5.85;1.27;;;;;;;24.70;34.23;94653.52;1679112;83;21034;-51
2022/05/26 11:39:28;;;;;;;6.62;1.20;;;;;;;24.28;35.37;94650.32;1678524;83;21081;-51
2022/05/26 11:42:03;;;;;;;4.75;1.22;;;;;;;23.93;36.25;94649.91;1675202;83;22136;-50
2022/05/26 11:44:45;;;;;;;4.60;1.00;;;;;;;23.65;36.74;94658.00;1682230;83;21502;-51
2022/05/26 11:47:34;;;;;;;4.03;1.10;;;;;;;23.37;37.06;94659.05;1636865;85;21442;-51
2022/05/26 11:50:04;;;;;;;1.40;1.20;;;;;;;23.12;38.03;94660.43;1684159;83;20952;-53
2022/05/26 11:52:40;;;;;;;4.33;1.07;;;;;;;22.93;38.64;94657.45;1650253;85;21062;-52
2022/05/26 11:55:12;;;;;;;10.05;2.72;;;;;;;22.83;38.87;94655.66;1678322;83;21507;-55
2022/05/26 11:57:48;;;;;;;4.70;1.20;;;;;;;22.74;38.67;94653.23;1697576;83;21039;-50
2022/05/26 12:00:35;;;;;;;3.90;1.47;;;;;;;22.71;38.52;94649.31;1690871;83;21435;-49
2022/05/26 12:03:26;;;;;;;12.53;1.92;;;;;;;22.73;39.74;94662.17;1677172;83;21482;-48
2022/05/26 12:06:13;;;;;;;8.03;1.98;;;;;;;22.70;39.06;94654.16;1679786;83;21139;-50
2022/05/26 12:09:04;;;;;;;2.27;1.25;;;;;;;22.64;38.47;94659.08;1670637;84;21204;-53
2022/05/26 12:11:59;;;;;;;7.22;1.82;;;;;;;22.54;38.56;94662.14;1685687;83;21006;-52
2022/05/26 12:14:50;;;;;;;5.03;1.35;;;;;;;22.39;39.28;94658.21;1661425;84;21083;-54
2022/05/26 12:17:42;;;;;;;2.83;1.62;;;;;;;22.31;39.50;94665.02;1690592;83;21097;-53
2022/05/26 12:20:15;;;;;;;2.83;1.30;;;;;;;22.23;40.08;94664.72;1675305;83;21493;-50
2022/05/26 12:22:57;;;;;;;4.62;1.67;;;;;;;22.16;39.51;94659.07;1693793;83;21851;-54
2022/05/26 12:25:33;;;;;;;11.50;1.85;;;;;;;22.21;39.71;94664.48;1688755;83;21066;-51
2022/05/26 12:28:14;;;;;;;7.45;2.00;;;;;;;22.25;40.31;94661.52;1698888;83;22741;-50
2022/05/26 12:30:50;;;;;;;2.45;1.30;;;;;;;22.24;39.53;94662.80;1693296;83;21557;-50
2022/05/26 12:33:28;;;;;;;5.00;1.50;;;;;;;22.29;38.84;94663.38;1703814;82;21026;-52
2022/05/26 12:36:25;;;;;;;5.17;2.20;;;;;;;22.51;38.25;94653.35;1644000;85;21137;-52
2022/05/26 12:39:43;;;;;;;5.22;2.05;;;;;;;23.30;37.27;94668.73;1655624;85;21106;-49
2022/05/26 12:42:29;;;;;;;4.03;1.10;;;;;;;24.49;35.84;94656.06;1624236;86;21053;-51
2022/05/26 12:45:19;;;;;;;3.15;1.25;;;;;;;25.55;34.18;94664.66;1623877;86;21040;-50